sensor_id;sensor_type;location;lat;lon;timestamp;temperature;humidity
12452;DHT22;6291;48.924;12.204;2022-08-19T00:00:59;20.30;99.90
12452;DHT22;6291;48.924;12.204;2022-08-19T00:06:03;20.40;99.90
12452;DHT22;6291;48.924;12.204;2022-08-19T00:11:08;20.30;99.90
12452;DHT22;6291;48.924;12.204;2022-08-19T00:16:21;20.10;99.90
12452;DHT22;6291;48.924;12.204;2022-08-19T00:21:27;20.10;99.90
12452;DHT22;6291;48.924;12.204;2022-08-19T00:26:32;20.10;99.90
12452;DHT22;6291;48.924;12.204;2022-08-19T00:31:35;20.10;99.90
12452;DHT22;6291;48.924;12.204;2022-08-19T00:36:39;20.10;99.90
12452;DHT22;6291;48.924;12.204;2022-08-19T00:41:45;20.10;99.90
12452;DHT22;6291;48.924;12.204;2022-08-19T00:46:51;20.20;99.90
12452;DHT22;6291;48.924;12.204;2022-08-19T00:52:02;20.20;99.90
12452;DHT22;6291;48.924;12.204;2022-08-19T00:57:10;20.20;99.90
12452;DHT22;6291;48.924;12.204;2022-08-19T01:02:15;20.10;99.90
12452;DHT22;6291;48.924;12.204;2022-08-19T01:07:19;20.20;99.90
12452;DHT22;6291;48.924;12.204;2022-08-19T01:12:26;20.10;99.90
12452;DHT22;6291;48.924;12.204;2022-08-19T01:17:30;20.20;99.90
12452;DHT22;6291;48.924;12.204;2022-08-19T01:22:38;20.00;99.90
12452;DHT22;6291;48.924;12.204;2022-08-19T01:27:47;20.10;99.90
12452;DHT22;6291;48.924;12.204;2022-08-19T01:32:55;20.30;99.90
12452;DHT22;6291;48.924;12.204;2022-08-19T01:38:03;20.50;99.90
12452;DHT22;6291;48.924;12.204;2022-08-19T01:43:10;20.70;99.90
12452;DHT22;6291;48.924;12.204;2022-08-19T01:48:14;20.50;99.90
12452;DHT22;6291;48.924;12.204;2022-08-19T01:53:18;20.30;99.90
12452;DHT22;6291;48.924;12.204;2022-08-19T01:58:27;20.30;99.90
12452;DHT22;6291;48.924;12.204;2022-08-19T02:03:32;18.40;99.90
12452;DHT22;6291;48.924;12.204;2022-08-19T02:08:39;20.00;99.90
12452;DHT22;6291;48.924;12.204;2022-08-19T02:13:42;20.00;99.90
12452;DHT22;6291;48.924;12.204;2022-08-19T02:18:46;20.10;99.90
12452;DHT22;6291;48.924;12.204;2022-08-19T02:23:51;20.20;99.90
12452;DHT22;6291;48.924;12.204;2022-08-19T02:28:55;20.20;99.90
12452;DHT22;6291;48.924;12.204;2022-08-19T02:33:58;20.20;99.90
12452;DHT22;6291;48.924;12.204;2022-08-19T02:39:03;20.20;99.90
12452;DHT22;6291;48.924;12.204;2022-08-19T02:44:07;20.40;99.90
12452;DHT22;6291;48.924;12.204;2022-08-19T02:49:31;20.40;99.90
12452;DHT22;6291;48.924;12.204;2022-08-19T02:54:37;20.20;99.90
12452;DHT22;6291;48.924;12.204;2022-08-19T02:59:40;20.30;99.90
12452;DHT22;6291;48.924;12.204;2022-08-19T03:04:44;20.30;99.90
12452;DHT22;6291;48.924;12.204;2022-08-19T03:09:49;20.30;99.90
12452;DHT22;6291;48.924;12.204;2022-08-19T03:14:52;20.40;99.90
12452;DHT22;6291;48.924;12.204;2022-08-19T03:19:56;20.30;99.90
12452;DHT22;6291;48.924;12.204;2022-08-19T03:25:00;20.30;99.90
12452;DHT22;6291;48.924;12.204;2022-08-19T03:30:05;20.30;99.90
12452;DHT22;6291;48.924;12.204;2022-08-19T03:35:12;20.00;99.90
12452;DHT22;6291;48.924;12.204;2022-08-19T03:40:17;20.10;99.90
12452;DHT22;6291;48.924;12.204;2022-08-19T03:45:20;20.10;99.90
12452;DHT22;6291;48.924;12.204;2022-08-19T03:50:23;20.10;99.90
12452;DHT22;6291;48.924;12.204;2022-08-19T03:55:28;20.30;99.90
12452;DHT22;6291;48.924;12.204;2022-08-19T04:00:32;20.30;99.90
12452;DHT22;6291;48.924;12.204;2022-08-19T04:05:35;20.00;99.90
12452;DHT22;6291;48.924;12.204;2022-08-19T04:10:40;19.90;99.90
12452;DHT22;6291;48.924;12.204;2022-08-19T04:15:45;19.80;99.90
12452;DHT22;6291;48.924;12.204;2022-08-19T04:20:48;19.80;99.90
12452;DHT22;6291;48.924;12.204;2022-08-19T04:25:54;19.80;99.90
12452;DHT22;6291;48.924;12.204;2022-08-19T04:30:57;20.00;99.90
12452;DHT22;6291;48.924;12.204;2022-08-19T04:36:00;20.00;99.90
12452;DHT22;6291;48.924;12.204;2022-08-19T04:41:05;20.10;99.90
12452;DHT22;6291;48.924;12.204;2022-08-19T04:46:26;20.20;99.90
12452;DHT22;6291;48.924;12.204;2022-08-19T04:51:43;20.00;99.90
12452;DHT22;6291;48.924;12.204;2022-08-19T04:56:48;20.00;99.90
12452;DHT22;6291;48.924;12.204;2022-08-19T05:01:53;20.00;99.90
12452;DHT22;6291;48.924;12.204;2022-08-19T05:06:56;19.50;99.90
12452;DHT22;6291;48.924;12.204;2022-08-19T05:12:04;20.40;99.90
12452;DHT22;6291;48.924;12.204;2022-08-19T05:17:07;20.30;99.90
12452;DHT22;6291;48.924;12.204;2022-08-19T05:22:31;20.30;99.90
12452;DHT22;6291;48.924;12.204;2022-08-19T05:27:39;20.40;99.90
12452;DHT22;6291;48.924;12.204;2022-08-19T05:32:43;20.40;99.90
12452;DHT22;6291;48.924;12.204;2022-08-19T05:37:46;20.40;99.90
12452;DHT22;6291;48.924;12.204;2022-08-19T05:42:57;20.30;99.90
12452;DHT22;6291;48.924;12.204;2022-08-19T05:48:00;20.20;99.90
12452;DHT22;6291;48.924;12.204;2022-08-19T05:53:03;20.20;99.90
12452;DHT22;6291;48.924;12.204;2022-08-19T05:58:08;20.50;99.90
12452;DHT22;6291;48.924;12.204;2022-08-19T06:03:11;20.70;99.90
12452;DHT22;6291;48.924;12.204;2022-08-19T06:08:15;20.50;99.90
12452;DHT22;6291;48.924;12.204;2022-08-19T06:13:22;20.70;99.90
12452;DHT22;6291;48.924;12.204;2022-08-19T06:18:26;20.80;99.90
12452;DHT22;6291;48.924;12.204;2022-08-19T06:23:30;20.80;99.90
12452;DHT22;6291;48.924;12.204;2022-08-19T06:28:34;20.80;99.90
12452;DHT22;6291;48.924;12.204;2022-08-19T06:33:38;21.00;99.90
12452;DHT22;6291;48.924;12.204;2022-08-19T06:38:42;21.10;99.90
12452;DHT22;6291;48.924;12.204;2022-08-19T06:43:48;21.10;99.90
12452;DHT22;6291;48.924;12.204;2022-08-19T06:48:56;21.10;99.90
12452;DHT22;6291;48.924;12.204;2022-08-19T06:54:00;21.10;99.90
12452;DHT22;6291;48.924;12.204;2022-08-19T06:59:08;21.30;99.90
12452;DHT22;6291;48.924;12.204;2022-08-19T07:04:17;21.30;99.90
12452;DHT22;6291;48.924;12.204;2022-08-19T07:09:22;23.40;99.90
12452;DHT22;6291;48.924;12.204;2022-08-19T07:14:27;21.40;99.90
12452;DHT22;6291;48.924;12.204;2022-08-19T07:19:31;21.30;99.90
12452;DHT22;6291;48.924;12.204;2022-08-19T07:24:36;21.00;99.90
12452;DHT22;6291;48.924;12.204;2022-08-19T07:29:47;20.90;99.90
12452;DHT22;6291;48.924;12.204;2022-08-19T07:34:58;21.00;99.90
12452;DHT22;6291;48.924;12.204;2022-08-19T07:40:06;21.00;99.90
12452;DHT22;6291;48.924;12.204;2022-08-19T07:45:12;20.80;99.90
12452;DHT22;6291;48.924;12.204;2022-08-19T07:50:16;20.90;99.90
12452;DHT22;6291;48.924;12.204;2022-08-19T07:55:23;21.00;99.90
12452;DHT22;6291;48.924;12.204;2022-08-19T08:00:47;20.90;99.90
12452;DHT22;6291;48.924;12.204;2022-08-19T08:05:50;21.00;99.90
12452;DHT22;6291;48.924;12.204;2022-08-19T08:11:11;21.60;99.90
12452;DHT22;6291;48.924;12.204;2022-08-19T08:16:17;24.20;99.90
12452;DHT22;6291;48.924;12.204;2022-08-19T08:21:21;22.20;99.90
12452;DHT22;6291;48.924;12.204;2022-08-19T08:26:24;22.50;99.90
12452;DHT22;6291;48.924;12.204;2022-08-19T08:31:30;22.70;99.90
12452;DHT22;6291;48.924;12.204;2022-08-19T08:36:37;23.10;99.90
12452;DHT22;6291;48.924;12.204;2022-08-19T08:41:49;23.50;99.90
12452;DHT22;6291;48.924;12.204;2022-08-19T08:46:59;23.20;99.90
12452;DHT22;6291;48.924;12.204;2022-08-19T08:52:06;23.40;99.90
12452;DHT22;6291;48.924;12.204;2022-08-19T08:57:14;23.60;99.90
12452;DHT22;6291;48.924;12.204;2022-08-19T09:02:19;24.00;99.90
12452;DHT22;6291;48.924;12.204;2022-08-19T09:07:29;23.80;99.90
12452;DHT22;6291;48.924;12.204;2022-08-19T09:12:42;23.60;99.90
12452;DHT22;6291;48.924;12.204;2022-08-19T09:17:49;23.00;99.90
12452;DHT22;6291;48.924;12.204;2022-08-19T09:22:53;22.70;99.90
12452;DHT22;6291;48.924;12.204;2022-08-19T09:27:56;22.70;99.90
12452;DHT22;6291;48.924;12.204;2022-08-19T09:33:17;22.60;99.90
12452;DHT22;6291;48.924;12.204;2022-08-19T09:38:21;22.70;99.90
12452;DHT22;6291;48.924;12.204;2022-08-19T09:43:24;22.70;99.90
12452;DHT22;6291;48.924;12.204;2022-08-19T09:48:46;22.70;99.90
12452;DHT22;6291;48.924;12.204;2022-08-19T09:53:51;22.60;99.90
12452;DHT22;6291;48.924;12.204;2022-08-19T09:58:59;22.50;99.90
12452;DHT22;6291;48.924;12.204;2022-08-19T10:04:04;22.50;99.90
12452;DHT22;6291;48.924;12.204;2022-08-19T10:09:21;22.70;99.90
12452;DHT22;6291;48.924;12.204;2022-08-19T10:14:34;22.70;99.90
12452;DHT22;6291;48.924;12.204;2022-08-19T10:19:41;22.60;99.90
12452;DHT22;6291;48.924;12.204;2022-08-19T10:24:56;22.70;99.90
12452;DHT22;6291;48.924;12.204;2022-08-19T10:30:00;22.90;99.90
12452;DHT22;6291;48.924;12.204;2022-08-19T10:35:06;23.50;99.90
12452;DHT22;6291;48.924;12.204;2022-08-19T10:40:10;23.80;99.90
12452;DHT22;6291;48.924;12.204;2022-08-19T10:45:14;24.10;99.90
12452;DHT22;6291;48.924;12.204;2022-08-19T10:50:19;23.70;99.90
12452;DHT22;6291;48.924;12.204;2022-08-19T10:55:40;22.60;99.90
12452;DHT22;6291;48.924;12.204;2022-08-19T11:01:01;23.00;99.90
12452;DHT22;6291;48.924;12.204;2022-08-19T11:06:07;23.10;99.90
12452;DHT22;6291;48.924;12.204;2022-08-19T11:11:11;23.40;99.90
12452;DHT22;6291;48.924;12.204;2022-08-19T11:16:17;23.50;99.90
12452;DHT22;6291;48.924;12.204;2022-08-19T11:21:23;23.40;99.90
12452;DHT22;6291;48.924;12.204;2022-08-19T11:26:27;23.40;99.90
12452;DHT22;6291;48.924;12.204;2022-08-19T11:31:34;21.10;99.90
12452;DHT22;6291;48.924;12.204;2022-08-19T11:36:43;23.40;99.90
12452;DHT22;6291;48.924;12.204;2022-08-19T11:41:47;23.10;99.90
12452;DHT22;6291;48.924;12.204;2022-08-19T11:46:50;22.80;99.90
12452;DHT22;6291;48.924;12.204;2022-08-19T11:51:55;23.00;99.90
12452;DHT22;6291;48.924;12.204;2022-08-19T11:57:02;23.90;99.90
12452;DHT22;6291;48.924;12.204;2022-08-19T12:02:05;23.60;99.90
12452;DHT22;6291;48.924;12.204;2022-08-19T12:07:10;23.60;99.90
12452;DHT22;6291;48.924;12.204;2022-08-19T12:12:14;23.30;99.90
12452;DHT22;6291;48.924;12.204;2022-08-19T12:17:17;22.90;99.90
12452;DHT22;6291;48.924;12.204;2022-08-19T12:22:22;23.10;99.90
12452;DHT22;6291;48.924;12.204;2022-08-19T12:27:26;23.30;99.90
12452;DHT22;6291;48.924;12.204;2022-08-19T12:32:42;23.50;99.90
12452;DHT22;6291;48.924;12.204;2022-08-19T12:37:47;23.60;99.90
12452;DHT22;6291;48.924;12.204;2022-08-19T12:42:58;23.10;99.90
12452;DHT22;6291;48.924;12.204;2022-08-19T12:48:02;22.70;99.90
12452;DHT22;6291;48.924;12.204;2022-08-19T12:53:27;22.90;99.90
12452;DHT22;6291;48.924;12.204;2022-08-19T12:58:31;22.80;99.90
12452;DHT22;6291;48.924;12.204;2022-08-19T13:03:36;23.10;99.90
12452;DHT22;6291;48.924;12.204;2022-08-19T13:08:43;23.00;99.90
12452;DHT22;6291;48.924;12.204;2022-08-19T13:13:49;23.80;99.90
12452;DHT22;6291;48.924;12.204;2022-08-19T13:18:54;24.20;99.90
12452;DHT22;6291;48.924;12.204;2022-08-19T13:23:59;25.20;99.90
12452;DHT22;6291;48.924;12.204;2022-08-19T13:29:06;26.30;99.90
12452;DHT22;6291;48.924;12.204;2022-08-19T13:34:30;26.40;99.90
12452;DHT22;6291;48.924;12.204;2022-08-19T13:39:36;25.70;99.90
12452;DHT22;6291;48.924;12.204;2022-08-19T13:44:39;25.40;99.90
12452;DHT22;6291;48.924;12.204;2022-08-19T13:49:43;27.00;99.90
12452;DHT22;6291;48.924;12.204;2022-08-19T13:54:48;27.00;99.90
12452;DHT22;6291;48.924;12.204;2022-08-19T13:59:51;26.70;99.90
12452;DHT22;6291;48.924;12.204;2022-08-19T14:04:54;26.30;99.90
12452;DHT22;6291;48.924;12.204;2022-08-19T14:09:59;26.10;99.90
12452;DHT22;6291;48.924;12.204;2022-08-19T14:15:05;26.50;99.90
12452;DHT22;6291;48.924;12.204;2022-08-19T14:20:10;26.60;99.90
12452;DHT22;6291;48.924;12.204;2022-08-19T14:25:22;26.20;99.90
12452;DHT22;6291;48.924;12.204;2022-08-19T14:30:28;26.20;99.90
12452;DHT22;6291;48.924;12.204;2022-08-19T14:35:32;25.70;99.90
12452;DHT22;6291;48.924;12.204;2022-08-19T14:40:37;25.50;99.90
12452;DHT22;6291;48.924;12.204;2022-08-19T14:45:42;25.30;99.90
12452;DHT22;6291;48.924;12.204;2022-08-19T14:50:46;24.90;99.90
12452;DHT22;6291;48.924;12.204;2022-08-19T14:55:51;23.70;99.90
12452;DHT22;6291;48.924;12.204;2022-08-19T15:00:54;23.50;99.90
12452;DHT22;6291;48.924;12.204;2022-08-19T15:05:59;23.30;99.90
12452;DHT22;6291;48.924;12.204;2022-08-19T15:11:07;23.10;99.90
12452;DHT22;6291;48.924;12.204;2022-08-19T15:16:12;23.10;99.90
12452;DHT22;6291;48.924;12.204;2022-08-19T15:21:19;22.80;99.90
12452;DHT22;6291;48.924;12.204;2022-08-19T15:26:29;22.60;99.90
12452;DHT22;6291;48.924;12.204;2022-08-19T15:31:34;22.40;99.90
12452;DHT22;6291;48.924;12.204;2022-08-19T15:36:39;22.00;99.90
12452;DHT22;6291;48.924;12.204;2022-08-19T15:41:45;22.20;99.90
12452;DHT22;6291;48.924;12.204;2022-08-19T15:46:48;22.40;99.90
12452;DHT22;6291;48.924;12.204;2022-08-19T15:51:52;22.30;99.90
12452;DHT22;6291;48.924;12.204;2022-08-19T15:57:00;22.10;99.90
12452;DHT22;6291;48.924;12.204;2022-08-19T16:02:23;18.00;99.90
12452;DHT22;6291;48.924;12.204;2022-08-19T16:07:46;18.40;99.90
12452;DHT22;6291;48.924;12.204;2022-08-19T16:12:51;22.40;99.90
12452;DHT22;6291;48.924;12.204;2022-08-19T16:17:56;22.50;99.90
12452;DHT22;6291;48.924;12.204;2022-08-19T16:23:03;22.70;99.90
12452;DHT22;6291;48.924;12.204;2022-08-19T16:28:08;22.50;99.90
12452;DHT22;6291;48.924;12.204;2022-08-19T16:33:12;22.40;99.90
12452;DHT22;6291;48.924;12.204;2022-08-19T16:38:24;21.90;99.90
12452;DHT22;6291;48.924;12.204;2022-08-19T16:43:30;21.90;99.90
12452;DHT22;6291;48.924;12.204;2022-08-19T16:48:33;21.90;99.90
12452;DHT22;6291;48.924;12.204;2022-08-19T16:53:38;21.50;99.90
12452;DHT22;6291;48.924;12.204;2022-08-19T16:58:43;21.40;99.90
12452;DHT22;6291;48.924;12.204;2022-08-19T17:03:47;21.40;99.90
12452;DHT22;6291;48.924;12.204;2022-08-19T17:08:55;21.50;99.90
12452;DHT22;6291;48.924;12.204;2022-08-19T17:14:01;21.40;99.90
12452;DHT22;6291;48.924;12.204;2022-08-19T17:19:06;21.50;99.90
12452;DHT22;6291;48.924;12.204;2022-08-19T17:24:09;21.60;99.90
12452;DHT22;6291;48.924;12.204;2022-08-19T17:29:14;21.50;99.90
12452;DHT22;6291;48.924;12.204;2022-08-19T17:34:18;21.50;99.90
12452;DHT22;6291;48.924;12.204;2022-08-19T17:39:21;21.70;99.90
12452;DHT22;6291;48.924;12.204;2022-08-19T17:44:26;21.60;99.90
12452;DHT22;6291;48.924;12.204;2022-08-19T17:49:29;21.50;99.90
12452;DHT22;6291;48.924;12.204;2022-08-19T17:54:34;21.50;99.90
12452;DHT22;6291;48.924;12.204;2022-08-19T17:59:39;21.50;99.90
12452;DHT22;6291;48.924;12.204;2022-08-19T18:04:42;21.60;99.90
12452;DHT22;6291;48.924;12.204;2022-08-19T18:09:49;21.50;99.90
12452;DHT22;6291;48.924;12.204;2022-08-19T18:14:58;21.40;99.90
12452;DHT22;6291;48.924;12.204;2022-08-19T18:20:04;21.40;99.90
12452;DHT22;6291;48.924;12.204;2022-08-19T18:25:15;21.20;99.90
12452;DHT22;6291;48.924;12.204;2022-08-19T18:30:22;21.10;99.90
12452;DHT22;6291;48.924;12.204;2022-08-19T18:35:28;21.00;99.90
12452;DHT22;6291;48.924;12.204;2022-08-19T18:40:32;21.00;99.90
12452;DHT22;6291;48.924;12.204;2022-08-19T18:45:54;20.90;99.90
12452;DHT22;6291;48.924;12.204;2022-08-19T18:51:16;20.70;99.90
12452;DHT22;6291;48.924;12.204;2022-08-19T18:56:19;20.30;99.90
12452;DHT22;6291;48.924;12.204;2022-08-19T19:01:33;16.50;99.90
12452;DHT22;6291;48.924;12.204;2022-08-19T19:06:40;20.10;99.90
12452;DHT22;6291;48.924;12.204;2022-08-19T19:11:46;20.10;99.90
12452;DHT22;6291;48.924;12.204;2022-08-19T19:16:52;20.40;99.90
12452;DHT22;6291;48.924;12.204;2022-08-19T19:21:56;20.60;99.90
12452;DHT22;6291;48.924;12.204;2022-08-19T19:27:03;20.50;99.90
12452;DHT22;6291;48.924;12.204;2022-08-19T19:32:15;20.50;99.90
12452;DHT22;6291;48.924;12.204;2022-08-19T19:37:19;20.50;99.90
12452;DHT22;6291;48.924;12.204;2022-08-19T19:42:23;20.30;99.90
12452;DHT22;6291;48.924;12.204;2022-08-19T19:47:28;20.20;99.90
12452;DHT22;6291;48.924;12.204;2022-08-19T19:52:32;20.10;99.90
12452;DHT22;6291;48.924;12.204;2022-08-19T19:57:35;20.20;99.90
12452;DHT22;6291;48.924;12.204;2022-08-19T20:02:42;20.20;99.90
12452;DHT22;6291;48.924;12.204;2022-08-19T20:07:52;20.00;99.90
12452;DHT22;6291;48.924;12.204;2022-08-19T20:13:13;20.00;99.90
12452;DHT22;6291;48.924;12.204;2022-08-19T20:18:18;20.00;99.90
12452;DHT22;6291;48.924;12.204;2022-08-19T20:23:22;20.10;99.90
12452;DHT22;6291;48.924;12.204;2022-08-19T20:28:27;20.00;99.90
12452;DHT22;6291;48.924;12.204;2022-08-19T20:33:32;19.80;99.90
12452;DHT22;6291;48.924;12.204;2022-08-19T20:38:36;20.00;99.90
12452;DHT22;6291;48.924;12.204;2022-08-19T20:43:40;19.90;99.90
12452;DHT22;6291;48.924;12.204;2022-08-19T20:48:45;19.70;99.90
12452;DHT22;6291;48.924;12.204;2022-08-19T20:53:48;19.70;99.90
12452;DHT22;6291;48.924;12.204;2022-08-19T20:58:51;19.80;99.90
12452;DHT22;6291;48.924;12.204;2022-08-19T21:04:02;19.90;99.90
12452;DHT22;6291;48.924;12.204;2022-08-19T21:09:06;19.80;99.90
12452;DHT22;6291;48.924;12.204;2022-08-19T21:14:09;19.60;99.90
12452;DHT22;6291;48.924;12.204;2022-08-19T21:19:15;19.50;99.90
12452;DHT22;6291;48.924;12.204;2022-08-19T21:24:24;19.60;99.90
12452;DHT22;6291;48.924;12.204;2022-08-19T21:29:32;19.70;99.90
12452;DHT22;6291;48.924;12.204;2022-08-19T21:34:42;19.50;99.90
12452;DHT22;6291;48.924;12.204;2022-08-19T21:39:48;19.60;99.90
12452;DHT22;6291;48.924;12.204;2022-08-19T21:44:53;17.40;99.90
12452;DHT22;6291;48.924;12.204;2022-08-19T21:49:58;19.60;99.90
12452;DHT22;6291;48.924;12.204;2022-08-19T21:55:02;19.40;99.90
12452;DHT22;6291;48.924;12.204;2022-08-19T22:00:12;19.20;99.90
12452;DHT22;6291;48.924;12.204;2022-08-19T22:05:18;19.10;99.90
12452;DHT22;6291;48.924;12.204;2022-08-19T22:10:26;20.00;99.90
12452;DHT22;6291;48.924;12.204;2022-08-19T22:15:30;19.10;99.90
12452;DHT22;6291;48.924;12.204;2022-08-19T22:20:35;19.00;99.90
12452;DHT22;6291;48.924;12.204;2022-08-19T22:25:42;19.00;99.90
12452;DHT22;6291;48.924;12.204;2022-08-19T22:30:46;18.70;99.90
12452;DHT22;6291;48.924;12.204;2022-08-19T22:35:54;18.30;99.90
12452;DHT22;6291;48.924;12.204;2022-08-19T22:40:57;18.20;99.90
12452;DHT22;6291;48.924;12.204;2022-08-19T22:46:01;17.90;99.90
12452;DHT22;6291;48.924;12.204;2022-08-19T22:51:06;17.90;99.90
12452;DHT22;6291;48.924;12.204;2022-08-19T22:56:29;17.80;99.90
12452;DHT22;6291;48.924;12.204;2022-08-19T23:01:32;17.80;99.90
12452;DHT22;6291;48.924;12.204;2022-08-19T23:06:38;17.70;99.90
12452;DHT22;6291;48.924;12.204;2022-08-19T23:11:43;17.50;99.90
12452;DHT22;6291;48.924;12.204;2022-08-19T23:16:47;17.50;99.90
12452;DHT22;6291;48.924;12.204;2022-08-19T23:21:54;17.60;99.90
12452;DHT22;6291;48.924;12.204;2022-08-19T23:26:57;17.50;99.90
12452;DHT22;6291;48.924;12.204;2022-08-19T23:32:19;17.40;99.90
12452;DHT22;6291;48.924;12.204;2022-08-19T23:37:24;17.30;99.90
12452;DHT22;6291;48.924;12.204;2022-08-19T23:42:27;17.30;99.90
12452;DHT22;6291;48.924;12.204;2022-08-19T23:47:30;17.30;99.90
12452;DHT22;6291;48.924;12.204;2022-08-19T23:52:42;17.30;99.90
12452;DHT22;6291;48.924;12.204;2022-08-19T23:57:46;17.20;99.90
